EGTK/OXF METAR and TAF weather

Enter ICAO airport designator
Station Type Date Time Source
EGTK METAR 2020/12/01 21:20 UTC NOAA

EGTK 012120Z 32006KT CAVOK 03/01 Q1026


Station Type Date Time Source
EGTK Decoded METAR 2020/12/01 21:20 UTC NOAA

Station name not available
Dec 01, 2020 - 04:20 PM EST / 2020.12.01 2120 UTC
Wind: from the NW (320 degrees) at 7 MPH (6 KT):0
Visibility: greater than 7 mile(s):0
Temperature: 37 F (3 C)
Dew Point: 33 F (1 C)
Relative Humidity: 86%
Pressure (altimeter): 30.30 in. Hg (1026 hPa)
ob: EGTK 012120Z 32006KT CAVOK 03/01 Q1026
cycle: 21

Station Type Date Time Source
EGTK TAF UTC NOAA

Error!

Example: see airport list